.
WxDataArchive / Data Records for 2011-04-28
2011-04-27 April 2011 2011-04-29

Data Records for Thursday, 28 April 2011

Time	Temp	Chill	HIndex	Humid	Dewpt	 Wind 	HiWind	WindDir	Rain 	Barom 
-----	----	-----	------	-----	-----	------	------	-------	-----	----- 
00:00	57.0	57.0	57.0	96	55.9	1	4	90	0.02	29.309 
00:05	57.0	57.0	57.0	96	55.9	2	4	90	0.00	29.309 
00:10	57.0	57.0	57.0	96	55.9	3	6	90	0.02	29.309 
00:15	57.0	57.0	57.0	96	55.9	2	5	90	0.02	29.289 
00:20	57.0	57.0	57.0	96	55.9	1	4	90	0.01	29.289 
00:25	57.0	57.0	57.0	96	55.9	3	6	90	0.00	29.289 
00:30	56.9	56.9	56.9	96	55.8	1	4	135	0.01	29.278 
00:35	56.9	56.9	56.9	96	55.8	0	2	90	0.00	29.278 
00:40	56.9	56.9	56.9	96	55.8	1	4	90	0.00	29.278 
00:45	56.9	56.9	56.9	96	55.8	1	5	90	0.00	29.260 
00:50	56.9	56.9	56.9	96	55.8	0	3	90	0.00	29.260 
00:55	56.9	56.9	56.9	96	55.8	1	3	90	0.00	29.260 
01:00	56.9	56.9	56.9	96	55.8	0	2	90	0.00	29.260 
01:05	56.9	56.9	56.9	97	56.1	1	5	90	0.00	29.260 
01:10	57.0	57.0	57.0	97	56.2	2	4	90	0.00	29.260 
01:15	57.0	57.0	57.0	97	56.2	2	4	90	0.00	29.251 
01:20	57.0	57.0	57.0	97	56.2	1	3	90	0.00	29.251 
01:25	57.0	57.0	57.0	97	56.2	2	3	90	0.00	29.251 
01:30	57.0	57.0	57.0	97	56.2	2	4	90	0.00	29.249 
01:35	57.0	57.0	57.0	97	56.2	0	2	90	0.00	29.249 
01:40	57.0	57.0	57.0	97	56.2	1	3	90	0.00	29.249 
01:45	57.0	57.0	57.0	97	56.2	1	3	90	0.00	29.244 
01:50	57.0	57.0	57.0	97	56.2	1	3	90	0.00	29.244 
01:55	57.0	57.0	57.0	97	56.2	0	2	90	0.00	29.244 
02:00	57.0	57.0	57.0	97	56.2	0	0	---	0.00	29.239 
02:05	57.0	57.0	57.0	97	56.2	0	3	112	0.00	29.239 
02:10	57.0	57.0	57.0	97	56.2	0	1	112	0.00	29.239 
02:15	55.3	55.3	55.3	96	54.2	3	10	112	0.00	29.260 
02:20	52.0	52.0	52.0	95	50.6	4	9	315	0.00	29.260 
02:25	50.8	50.8	50.8	95	49.4	4	11	292	0.00	29.260 
02:30	50.4	50.4	50.4	96	49.3	6	13	292	0.02	29.274 
02:35	49.8	47.4	49.8	96	48.7	6	11	270	0.02	29.274 
02:40	49.6	47.2	49.6	96	48.5	6	11	270	0.01	29.274 
02:45	49.5	47.6	49.5	96	48.4	5	11	315	0.02	29.299 
02:50	49.4	47.5	49.4	95	48.0	5	11	315	0.02	29.299 
02:55	49.4	47.0	49.4	95	48.0	6	14	270	0.01	29.299 
03:00	49.4	47.5	49.4	95	48.0	5	13	270	0.01	29.305 
03:05	49.2	46.7	49.2	95	47.8	6	12	270	0.01	29.305 
03:10	49.1	46.6	49.1	95	47.7	6	12	270	0.01	29.305 
03:15	48.6	46.0	48.6	95	47.2	6	12	292	0.01	29.350 
03:20	48.5	45.9	48.5	95	47.1	6	11	270	0.00	29.350 
03:25	48.3	45.6	48.3	94	46.7	6	12	270	0.02	29.350 
03:30	48.2	45.0	48.2	94	46.6	7	11	270	0.01	29.382 
03:35	48.0	45.9	48.0	94	46.4	5	9	270	0.03	29.382 
03:40	47.7	44.9	47.7	94	46.1	6	13	270	0.02	29.382 
03:45	47.1	44.2	47.1	94	45.5	6	12	270	0.02	29.401 
03:50	46.8	44.5	46.8	94	45.2	5	10	270	0.01	29.401 
03:55	46.5	44.1	46.5	94	44.9	5	10	270	0.00	29.401 
04:00	46.2	43.8	46.2	94	44.6	5	10	270	0.01	29.418 
04:05	46.1	44.4	46.1	94	44.5	4	8	270	0.00	29.418 
04:10	46.0	44.2	46.0	94	44.4	4	10	270	0.00	29.418 
04:15	45.8	43.3	45.8	94	44.2	5	12	270	0.01	29.441 
04:20	45.8	44.0	45.8	94	44.2	4	9	270	0.00	29.441 
04:25	45.8	44.0	45.8	94	44.2	4	7	270	0.00	29.441 
04:30	45.7	43.9	45.7	94	44.1	4	7	270	0.00	29.456 
04:35	45.7	45.7	45.7	94	44.1	3	6	270	0.00	29.456 
04:40	45.4	43.6	45.4	93	43.5	4	9	270	0.00	29.456 
04:45	45.1	43.2	45.1	93	43.2	4	12	270	0.00	29.476 
04:50	44.9	43.0	44.9	93	43.0	4	9	248	0.00	29.476 
04:55	44.8	42.1	44.8	93	42.9	5	7	270	0.00	29.476 
05:00	44.5	41.8	44.5	93	42.6	5	10	270	0.00	29.497 
05:05	43.9	40.4	43.9	92	41.7	6	11	270	0.00	29.497 
05:10	43.6	40.7	43.6	91	41.1	5	10	270	0.00	29.497 
05:15	43.6	40.7	43.6	90	40.9	5	9	270	0.00	29.513 
05:20	43.8	40.9	43.8	89	40.8	5	12	270	0.00	29.513 
05:25	43.8	41.7	43.8	88	40.5	4	8	270	0.00	29.513 
05:30	43.9	43.9	43.9	88	40.6	3	8	248	0.00	29.525 
05:35	44.1	42.1	44.1	88	40.8	4	7	248	0.00	29.525 
05:40	44.1	41.3	44.1	88	40.8	5	7	270	0.00	29.525 
05:45	44.1	44.1	44.1	88	40.8	3	7	270	0.00	29.541 
05:50	44.1	42.1	44.1	87	40.5	4	7	270	0.00	29.541 
05:55	43.8	40.9	43.8	86	39.9	5	14	270	0.00	29.541 
06:00	43.6	41.5	43.6	85	39.4	4	7	270	0.00	29.547 
06:05	43.5	41.4	43.5	84	39.0	4	9	270	0.00	29.547 
06:10	43.3	41.1	43.3	82	38.2	4	6	270	0.00	29.547 
06:15	43.3	41.1	43.3	81	37.9	4	7	270	0.00	29.564 
06:20	43.2	40.2	43.2	80	37.5	5	9	270	0.00	29.564 
06:25	43.1	40.1	43.1	79	37.0	5	10	270	0.00	29.564 
06:30	42.9	40.7	42.9	80	37.2	4	7	270	0.00	29.578 
06:35	42.8	40.6	42.8	80	37.1	4	6	270	0.00	29.578 
06:40	42.6	40.3	42.6	81	37.2	4	6	270	0.00	29.578 
06:45	42.5	42.5	42.5	81	37.1	3	6	248	0.00	29.589 
06:50	42.3	42.3	42.3	81	36.9	3	7	270	0.00	29.589 
06:55	42.2	39.9	42.2	80	36.5	4	10	270	0.00	29.589 
07:00	42.2	42.2	42.2	80	36.5	3	10	292	0.00	29.600 
07:05	42.1	42.1	42.1	80	36.4	3	7	270	0.00	29.600 
07:10	42.1	39.7	42.1	80	36.4	4	10	248	0.00	29.600 
07:15	42.1	42.1	42.1	80	36.4	3	10	248	0.00	29.612 
07:20	42.1	42.1	42.1	80	36.4	3	10	248	0.00	29.612 
07:25	42.1	42.1	42.1	81	36.7	2	7	225	0.00	29.612 
07:30	42.1	42.1	42.1	81	36.7	2	5	248	0.00	29.624 
07:35	42.1	42.1	42.1	81	36.7	3	6	248	0.00	29.624 
07:40	42.2	42.2	42.2	82	37.1	3	7	248	0.00	29.624 
07:45	42.3	42.3	42.3	82	37.2	3	6	248	0.00	29.631 
07:50	42.5	42.5	42.5	82	37.4	2	7	270	0.00	29.631 
07:55	42.9	42.9	42.9	82	37.8	2	6	225	0.00	29.631 
08:00	43.2	43.2	43.2	82	38.1	2	6	248	0.00	29.638 
08:05	43.3	43.3	43.3	82	38.2	2	6	248	0.00	29.638 
08:10	43.6	43.6	43.6	82	38.5	2	4	248	0.00	29.638 
08:15	43.9	43.9	43.9	81	38.5	2	5	248	0.00	29.645 
08:20	44.2	44.2	44.2	81	38.7	3	7	248	0.00	29.645 
08:25	44.5	44.5	44.5	81	39.0	3	6	248	0.00	29.645 
08:30	44.6	44.6	44.6	80	38.8	3	9	248	0.00	29.651 
08:35	44.8	42.9	44.8	80	39.0	4	7	248	0.00	29.651 
08:40	45.1	45.1	45.1	79	39.0	3	8	248	0.00	29.651 
08:45	45.5	45.5	45.5	79	39.4	3	6	248	0.00	29.657 
08:50	45.7	45.7	45.7	77	38.9	3	6	248	0.00	29.657 
08:55	46.0	46.0	46.0	77	39.2	3	9	248	0.00	29.657 
09:00	46.1	46.1	46.1	77	39.3	3	6	248	0.00	29.659 
09:05	46.4	46.4	46.4	75	38.9	3	7	248	0.00	29.659 
09:10	46.5	44.8	46.5	75	39.0	4	7	248	0.00	29.659 
09:15	47.0	47.0	47.0	74	39.1	3	10	225	0.00	29.655 
09:20	47.0	45.4	47.0	73	38.8	4	10	248	0.00	29.655 
09:25	47.4	47.4	47.4	73	39.2	3	11	248	0.00	29.655 
09:30	47.9	47.9	47.9	74	40.0	2	7	248	0.00	29.654 
09:35	48.3	48.3	48.3	71	39.3	3	7	248	0.00	29.654 
09:40	48.5	48.5	48.5	71	39.5	3	10	248	0.01	29.654 
09:45	48.6	47.3	48.6	70	39.3	4	12	248	0.00	29.652 
09:50	48.6	47.3	48.6	70	39.3	4	12	248	0.00	29.652 
09:55	48.6	47.3	48.6	70	39.3	4	9	248	0.00	29.652 
10:00	48.3	46.2	48.3	70	39.0	5	13	225	0.00	29.651 
10:05	48.3	46.9	48.3	71	39.3	4	10	248	0.00	29.651 
10:10	48.3	46.9	48.3	71	39.3	4	10	248	0.00	29.651 
10:15	48.3	48.3	48.3	72	39.7	3	9	248	0.00	29.653 
10:20	48.8	48.8	48.8	73	40.5	3	9	248	0.00	29.653 
10:25	48.9	48.9	48.9	71	39.9	3	10	225	0.00	29.653 
10:30	49.4	49.4	49.4	72	40.8	3	7	248	0.00	29.652 
10:35	49.8	48.6	49.8	71	40.8	4	12	248	0.00	29.652 
10:40	50.2	50.2	50.2	70	40.8	5	11	248	0.00	29.652 
10:45	50.2	50.2	50.2	69	40.4	5	12	248	0.00	29.651 
10:50	50.5	50.5	50.5	69	40.7	4	12	248	0.00	29.651 
10:55	50.8	50.8	50.8	68	40.6	4	11	248	0.00	29.651 
11:00	51.0	51.0	51.0	67	40.4	4	10	248	0.00	29.651 
11:05	51.3	51.3	51.3	66	40.3	5	16	248	0.00	29.651 
11:10	52.0	52.0	52.0	69	42.1	4	10	270	0.00	29.651 
11:15	52.3	52.3	52.3	66	41.3	4	10	248	0.00	29.654 
11:20	52.3	52.3	52.3	63	40.1	4	11	248	0.00	29.654 
11:25	52.5	52.5	52.5	60	39.0	5	14	248	0.00	29.654 
11:30	52.0	52.0	52.0	60	38.5	4	10	270	0.00	29.660 
11:35	51.6	51.6	51.6	59	37.7	5	11	248	0.00	29.660 
11:40	51.4	51.4	51.4	58	37.1	6	17	248	0.00	29.660 
11:45	51.6	51.6	51.6	58	37.3	4	12	248	0.00	29.661 
11:50	51.6	51.6	51.6	58	37.3	5	13	248	0.00	29.661 
11:55	51.3	51.3	51.3	59	37.5	5	12	270	0.00	29.661 
12:00	51.4	51.4	51.4	58	37.1	6	12	248	0.00	29.664 
12:05	51.6	51.6	51.6	58	37.3	4	11	270	0.00	29.664 
12:10	51.6	51.6	51.6	59	37.7	3	9	270	0.00	29.664 
12:15	52.0	52.0	52.0	55	36.3	6	13	270	0.00	29.667 
12:20	51.9	51.9	51.9	55	36.2	6	13	248	0.00	29.667 
12:25	51.7	51.7	51.7	56	36.5	5	14	248	0.00	29.667 
12:30	51.7	51.7	51.7	57	37.0	5	11	248	0.00	29.670 
12:35	51.4	51.4	51.4	56	36.2	6	16	270	0.00	29.670 
12:40	51.0	51.0	51.0	56	35.9	7	15	270	0.00	29.670 
12:45	50.8	50.8	50.8	56	35.7	8	15	270	0.00	29.675 
12:50	50.8	50.8	50.8	57	36.1	7	14	248	0.00	29.675 
12:55	51.3	51.3	51.3	58	37.0	5	16	248	0.00	29.675 
13:00	51.6	51.6	51.6	57	36.9	5	11	270	0.00	29.681 
13:05	51.7	51.7	51.7	57	37.0	4	7	270	0.00	29.681 
13:10	51.4	51.4	51.4	56	36.2	6	13	248	0.00	29.681 
13:15	51.3	51.3	51.3	57	36.6	7	13	270	0.00	29.690 
13:20	51.3	51.3	51.3	57	36.6	6	15	270	0.00	29.690 
13:25	51.0	51.0	51.0	58	36.7	4	7	270	0.00	29.690 
13:30	50.5	50.5	50.5	58	36.3	6	14	248	0.00	29.700 
13:35	50.2	50.2	50.2	60	36.9	4	10	248	0.00	29.700 
13:40	50.4	50.4	50.4	60	37.0	5	10	248	0.00	29.700 
13:45	50.5	50.5	50.5	60	37.1	4	10	270	0.00	29.698 
13:50	50.4	50.4	50.4	61	37.5	4	10	248	0.00	29.698 
13:55	50.1	50.1	50.1	61	37.2	5	10	248	0.00	29.698 
14:00	49.6	47.7	49.6	61	36.7	5	15	270	0.00	29.704 
14:05	49.4	47.0	49.4	62	36.9	6	17	270	0.00	29.704 
14:10	49.4	47.5	49.4	63	37.3	5	10	270	0.00	29.704 
14:15	49.5	48.3	49.5	64	37.8	4	10	248	0.00	29.719 
14:20	49.4	47.5	49.4	64	37.7	5	11	270	0.00	29.719 
14:25	49.8	48.0	49.8	64	38.1	5	12	248	0.00	29.719 
14:30	50.1	50.1	50.1	64	38.4	3	9	248	0.00	29.721 
14:35	49.9	48.8	49.9	64	38.2	4	10	270	0.00	29.721 
14:40	49.8	48.6	49.8	64	38.1	4	11	248	0.00	29.721 
14:45	49.6	48.4	49.6	64	37.9	4	11	248	0.00	29.725 
14:50	49.4	48.2	49.4	65	38.1	4	10	248	0.00	29.725 
14:55	49.4	48.2	49.4	65	38.1	4	10	248	0.00	29.725 
15:00	49.5	47.6	49.5	65	38.2	5	8	248	0.00	29.724 
15:05	49.6	48.4	49.6	65	38.3	4	10	248	0.00	29.724 
15:10	50.1	50.1	50.1	65	38.8	3	10	270	0.00	29.724 
15:15	50.4	50.4	50.4	64	38.7	5	10	248	0.00	29.724 
15:20	50.5	50.5	50.5	64	38.8	4	6	248	0.00	29.724 
15:25	50.7	50.7	50.7	64	39.0	3	6	270	0.00	29.724 
15:30	50.7	50.7	50.7	63	38.6	4	9	270	0.00	29.719 
15:35	50.7	50.7	50.7	62	38.2	4	11	248	0.00	29.719 
15:40	50.8	50.8	50.8	63	38.7	3	7	248	0.00	29.719 
15:45	50.7	50.7	50.7	64	39.0	3	6	270	0.00	29.726 
15:50	50.4	50.4	50.4	65	39.1	4	7	270	0.00	29.726 
15:55	49.8	48.0	49.8	66	38.9	5	15	248	0.00	29.726 
16:00	49.6	48.4	49.6	68	39.5	4	7	270	0.00	29.726 
16:05	49.2	49.2	49.2	69	39.5	3	7	270	0.00	29.726 
16:10	48.3	46.2	48.3	71	39.3	5	10	270	0.00	29.726 
16:15	47.6	45.4	47.6	73	39.4	5	10	270	0.00	29.744 
16:20	47.3	45.8	47.3	76	40.1	4	9	270	0.00	29.744 
16:25	47.1	44.8	47.1	77	40.3	5	13	270	0.00	29.744 
16:30	47.3	45.8	47.3	77	40.5	4	9	270	0.00	29.740 
16:35	47.4	45.9	47.4	76	40.2	4	10	270	0.00	29.740 
16:40	47.4	45.9	47.4	75	39.9	4	12	270	0.00	29.740 
16:45	47.6	47.6	47.6	75	40.1	3	7	248	0.00	29.738 
16:50	47.4	45.9	47.4	74	39.5	4	10	248	0.00	29.738 
16:55	47.6	46.1	47.6	73	39.4	4	10	270	0.00	29.738 
17:00	47.7	46.2	47.7	73	39.5	4	8	248	0.00	29.740 
17:05	47.9	47.9	47.9	73	39.7	3	8	270	0.00	29.740 
17:10	47.9	46.4	47.9	72	39.3	4	7	270	0.00	29.740 
17:15	47.7	46.2	47.7	72	39.1	4	9	270	0.00	29.744 
17:20	47.4	45.9	47.4	71	38.5	4	7	270	0.00	29.744 
17:25	47.1	45.5	47.1	73	38.9	4	7	270	0.00	29.744 
17:30	47.1	45.5	47.1	72	38.5	4	11	248	0.00	29.745 
17:35	47.9	45.8	47.9	70	38.6	5	16	248	0.00	29.745 
17:40	48.2	45.5	48.2	68	38.1	6	11	270	0.00	29.745 
17:45	48.2	45.5	48.2	67	37.8	6	11	270	0.00	29.738 
17:50	48.2	46.8	48.2	67	37.8	4	7	270	0.00	29.738 
17:55	48.5	47.1	48.5	68	38.4	4	12	248	0.00	29.738 
18:00	48.5	46.5	48.5	67	38.0	5	10	270	0.00	29.745 
18:05	48.5	46.5	48.5	65	37.3	5	10	270	0.00	29.745 
18:10	48.5	46.5	48.5	65	37.3	5	10	270	0.00	29.745 
18:15	48.5	47.1	48.5	65	37.3	4	7	270	0.00	29.745 
18:20	48.3	46.9	48.3	65	37.1	4	12	270	0.00	29.745 
18:25	48.2	48.2	48.2	66	37.4	3	7	248	0.00	29.745 
18:30	48.0	46.6	48.0	66	37.2	4	7	270	0.00	29.745 
18:35	48.0	48.0	48.0	66	37.2	3	7	248	0.00	29.745 
18:40	48.0	48.0	48.0	66	37.2	3	6	248	0.00	29.745 
18:45	47.9	47.9	47.9	65	36.7	3	6	248	0.00	29.747 
18:50	47.9	47.9	47.9	65	36.7	3	5	248	0.00	29.747 
18:55	47.9	47.9	47.9	65	36.7	3	7	248	0.00	29.747 
19:00	47.9	47.9	47.9	65	36.7	3	7	248	0.00	29.748 
19:05	48.0	48.0	48.0	65	36.8	3	5	248	0.00	29.748 
19:10	47.9	46.4	47.9	65	36.7	4	7	248	0.00	29.748 
19:15	47.9	47.9	47.9	65	36.7	3	7	270	0.00	29.752 
19:20	47.9	47.9	47.9	65	36.7	3	6	248	0.00	29.752 
19:25	47.9	46.4	47.9	64	36.3	4	7	270	0.00	29.752 
19:30	47.7	47.7	47.7	65	36.5	3	7	248	0.00	29.761 
19:35	47.7	47.7	47.7	65	36.5	3	6	248	0.00	29.761 
19:40	47.7	46.2	47.7	65	36.5	4	7	270	0.00	29.761 
19:45	47.6	47.6	47.6	66	36.8	3	7	248	0.00	29.765 
19:50	47.4	47.4	47.4	66	36.6	3	8	248	0.00	29.765 
19:55	47.4	47.4	47.4	67	37.0	3	9	248	0.00	29.765 
20:00	46.8	46.8	46.8	71	37.9	3	7	270	0.00	29.776 
20:05	46.2	46.2	46.2	72	37.7	3	7	292	0.00	29.776 
20:10	46.2	44.5	46.2	71	37.3	4	7	270	0.00	29.776 
20:15	46.2	46.2	46.2	71	37.3	2	6	270	0.00	29.778 
20:20	46.1	46.1	46.1	71	37.2	2	4	248	0.00	29.778 
20:25	46.1	46.1	46.1	69	36.5	3	6	270	0.00	29.778 
20:30	46.1	46.1	46.1	70	36.9	2	5	270	0.00	29.786 
20:35	46.0	46.0	46.0	70	36.8	2	5	248	0.00	29.786 
20:40	46.0	46.0	46.0	70	36.8	3	7	248	0.00	29.786 
20:45	45.8	45.8	45.8	72	37.3	3	7	270	0.00	29.792 
20:50	45.7	45.7	45.7	72	37.2	2	5	270	0.00	29.792 
20:55	45.5	45.5	45.5	72	37.0	2	4	248	0.00	29.792 
21:00	45.5	45.5	45.5	73	37.4	1	3	270	0.00	29.795 
21:05	45.5	45.5	45.5	72	37.0	2	6	270	0.00	29.795 
21:10	45.5	45.5	45.5	72	37.0	3	5	248	0.00	29.795 
21:15	45.5	45.5	45.5	72	37.0	2	3	248	0.00	29.793 
21:20	45.5	45.5	45.5	71	36.7	2	4	248	0.00	29.793 
21:25	45.5	45.5	45.5	71	36.7	2	4	248	0.00	29.793 
21:30	45.5	45.5	45.5	72	37.0	2	4	270	0.00	29.795 
21:35	45.4	45.4	45.4	73	37.3	1	5	270	0.00	29.795 
21:40	45.4	45.4	45.4	74	37.6	1	4	248	0.00	29.795 
21:45	45.4	45.4	45.4	75	37.9	1	3	248	0.00	29.795 
21:50	45.4	45.4	45.4	74	37.6	2	4	248	0.00	29.795 
21:55	45.4	45.4	45.4	74	37.6	1	3	248	0.00	29.795 
22:00	45.4	45.4	45.4	74	37.6	1	4	248	0.00	29.799 
22:05	45.4	45.4	45.4	74	37.6	1	4	248	0.00	29.799 
22:10	45.4	45.4	45.4	75	37.9	2	3	248	0.00	29.799 
22:15	45.1	45.1	45.1	77	38.3	3	9	248	0.00	29.802 
22:20	44.6	44.6	44.6	78	38.2	3	5	248	0.00	29.802 
22:25	44.5	44.5	44.5	80	38.7	1	6	225	0.00	29.802 
22:30	44.3	44.3	44.3	80	38.5	2	4	248	0.00	29.805 
22:35	44.2	44.2	44.2	81	38.7	1	4	248	0.00	29.805 
22:40	44.2	44.2	44.2	81	38.7	1	4	248	0.00	29.805 
22:45	44.1	44.1	44.1	81	38.6	1	4	270	0.00	29.805 
22:50	43.9	43.9	43.9	82	38.8	2	6	270	0.00	29.805 
22:55	43.8	43.8	43.8	82	38.7	1	4	270	0.00	29.805 
23:00	43.8	43.8	43.8	82	38.7	2	4	270	0.00	29.806 
23:05	43.6	43.6	43.6	83	38.8	2	4	270	0.00	29.806 
23:10	43.2	43.2	43.2	83	38.4	2	6	270	0.00	29.806 
23:15	42.8	42.8	42.8	83	38.0	2	4	270	0.00	29.810 
23:20	42.6	42.6	42.6	83	37.8	2	5	270	0.00	29.810 
23:25	42.5	42.5	42.5	84	38.0	2	5	270	0.00	29.810 
23:30	42.5	42.5	42.5	84	38.0	2	5	248	0.00	29.816 
23:35	42.3	42.3	42.3	84	37.8	1	4	248	0.00	29.816 
23:40	42.3	42.3	42.3	84	37.8	2	3	248	0.00	29.816 
23:45	42.3	42.3	42.3	84	37.8	2	4	292	0.00	29.820 
23:50	42.5	42.5	42.5	84	38.0	2	4	270	0.00	29.820 
23:55	42.5	42.5	42.5	84	38.0	1	4	270	0.00	29.820 

CoCoRaHS
IN-AL-39
A2 Web Hosting
Creative Commons License
GoDaddy
search engine by freefind advanced

loaded 2018-11-16 23:23:51 • last modified 2010-11-18 10:43:29
Privacy PolicyDisclaimer
• wx.awcolley.com is powered by PmWiki v.2002016 •
• all content (unless otherwise noted) © 2018 A W Colley